»·PEaware :: N1021W KMYF-KHND

N1021W :: KMYF-KHND

FLIGHT INFORMATION

Flight Status: Arrived
Operator: Privately registered:
United States
More flights under this callsign
Pilot: Larry S. (744)
Aircraft: BEECH AIRCRAFT A90-E90 KING AIR
(BE9L)
More flights by this aircraft type
Origin: KMYF Montgomery
United States
Destination: KHND Henderson
United States
More flights between these airports :: More routes between these airports
Route: +MZB JLI V208 TNP V538 LAS
File this flight plan on PilotEdge
Remarks: FRC
Altitude:
(Current/Filed)
19,000ft
Speed:
(Current/Filed)
225kts
Departed: 04-Mar-14 09:04 PM
Arrived: 04-Mar-14 10:18 PM
Distance/Time
Traveled:
214nm/1:14
Distance/Time
To Go:
Arrived

Flight Plot

Page will automatically refresh every two minutes.


Map Options




Map Legend


Flown Route
Filed Route
Departure Airport
Arrival Airport
Navaid (VOR, NDB)
Fix

Horizontal Profiles

Position Reports

Time Latitude Longitude Heading Altitude Ground
Speed
04-Mar-14 20:28 32.810846 -117.143020 359 432ft 0kts
04-Mar-14 20:29 32.810849 -117.143020 359 432ft 0kts
04-Mar-14 20:30 32.810852 -117.143020 0 432ft 0kts
04-Mar-14 20:31 32.810855 -117.143020 0 432ft 0kts
04-Mar-14 20:32 32.810858 -117.143020 359 432ft 0kts
04-Mar-14 20:33 32.810861 -117.143020 359 432ft 0kts
04-Mar-14 20:34 32.810864 -117.143020 0 432ft 0kts
04-Mar-14 20:35 32.810867 -117.143020 359 432ft 0kts
04-Mar-14 20:36 32.810870 -117.143020 0 432ft 0kts
04-Mar-14 20:37 32.810873 -117.143020 359 432ft 0kts
04-Mar-14 20:38 32.810876 -117.143020 0 432ft 0kts
04-Mar-14 20:39 32.810879 -117.143020 359 432ft 0kts
04-Mar-14 20:40 32.810882 -117.143020 359 432ft 0kts
04-Mar-14 20:41 32.810885 -117.143020 359 432ft 0kts
04-Mar-14 20:42 32.810888 -117.143020 0 432ft 0kts
04-Mar-14 20:43 32.810891 -117.143020 359 432ft 0kts
04-Mar-14 20:44 32.810894 -117.143020 359 432ft 0kts
04-Mar-14 20:45 32.810897 -117.143020 359 432ft 0kts
04-Mar-14 20:46 32.812036 -117.143026 354 432ft 8kts
04-Mar-14 20:47 32.814060 -117.143953 337 432ft 0kts
04-Mar-14 20:48 32.814534 -117.144170 5 432ft 0kts
04-Mar-14 20:49 32.814747 -117.143935 55 432ft 5kts
04-Mar-14 20:50 32.814917 -117.142181 112 432ft 3kts
04-Mar-14 20:51 32.813586 -117.138729 114 432ft 12kts
04-Mar-14 20:52 32.812222 -117.135139 116 432ft 10kts
04-Mar-14 20:53 32.812345 -117.132180 26 432ft 10kts
04-Mar-14 20:54 32.812526 -117.132075 26 432ft 0kts
04-Mar-14 20:55 32.812528 -117.132073 26 432ft 0kts
04-Mar-14 20:56 32.812529 -117.132073 26 432ft 0kts
04-Mar-14 20:57 32.813154 -117.132010 298 432ft 6kts
04-Mar-14 20:58 32.813533 -117.132951 289 432ft 32kts
04-Mar-14 20:59 32.823575 -117.164291 279 956ft 136kts
04-Mar-14 21:00 32.830341 -117.211867 282 2090ft 155kts
04-Mar-14 21:01 32.838888 -117.265074 282 3246ft 165kts
04-Mar-14 21:02 32.818560 -117.292157 131 4659ft 145kts
04-Mar-14 21:03 32.806449 -117.249269 103 6181ft 134kts
04-Mar-14 21:04 32.798562 -117.206784 103 7661ft 129kts
04-Mar-14 21:05 32.792974 -117.164264 103 8978ft 136kts
04-Mar-14 21:06 32.788388 -117.116265 103 10014ft 155kts
04-Mar-14 21:07 32.793482 -117.063607 56 11033ft 187kts
04-Mar-14 21:08 32.829842 -117.016507 56 12034ft 196kts
04-Mar-14 21:09 32.865772 -116.965299 52 13039ft 208kts
04-Mar-14 21:10 32.904542 -116.911935 49 14048ft 217kts
04-Mar-14 21:11 32.944585 -116.856781 48 15052ft 221kts
04-Mar-14 21:12 32.984942 -116.801120 45 16048ft 221kts
04-Mar-14 21:13 33.025092 -116.745632 41 17048ft 218kts
04-Mar-14 21:14 33.064178 -116.691508 37 18044ft 212kts
04-Mar-14 21:15 33.102384 -116.638639 36 18894ft 211kts
04-Mar-14 21:16 33.142917 -116.583781 27 19117ft 225kts
04-Mar-14 21:17 33.194580 -116.539236 23 19111ft 234kts
04-Mar-14 21:18 33.247940 -116.492576 24 19103ft 240kts
04-Mar-14 21:19 33.302375 -116.445147 24 19095ft 244kts
04-Mar-14 21:20 33.358090 -116.396575 25 19089ft 249kts
04-Mar-14 21:21 33.405102 -116.355507 25 19084ft 251kts
04-Mar-14 21:22 33.462032 -116.305724 27 19090ft 253kts
04-Mar-14 21:23 33.518173 -116.256444 26 19100ft 246kts
04-Mar-14 21:24 33.572058 -116.209104 26 19088ft 234kts
04-Mar-14 21:25 33.624016 -116.163514 26 19095ft 228kts
04-Mar-14 21:26 33.675984 -116.121207 23 19097ft 222kts
04-Mar-14 21:27 33.727177 -116.080544 24 19105ft 219kts
04-Mar-14 21:28 33.777211 -116.040363 26 19132ft 211kts
04-Mar-14 21:29 33.826080 -116.001126 23 19129ft 213kts
04-Mar-14 21:30 33.877173 -115.960106 23 19138ft 228kts
04-Mar-14 21:31 33.931158 -115.916482 23 19141ft 236kts
04-Mar-14 21:32 33.985540 -115.872397 23 19149ft 234kts
04-Mar-14 21:33 34.039596 -115.828640 23 19147ft 234kts
04-Mar-14 21:34 34.094381 -115.784184 27 19153ft 229kts
04-Mar-14 21:35 34.143079 -115.734853 35 19142ft 229kts
04-Mar-14 21:36 34.189771 -115.682615 35 19140ft 228kts
04-Mar-14 21:37 34.236326 -115.630285 35 19136ft 228kts
04-Mar-14 21:38 34.282800 -115.577912 35 19134ft 228kts
04-Mar-14 21:39 34.330064 -115.527518 20 19120ft 221kts
04-Mar-14 21:40 34.387351 -115.503029 14 19109ft 218kts
04-Mar-14 21:41 34.444681 -115.477785 14 19104ft 218kts
04-Mar-14 21:42 34.501814 -115.452869 14 19091ft 216kts
04-Mar-14 21:43 34.558404 -115.428194 15 19079ft 215kts
04-Mar-14 21:44 34.614735 -115.403598 15 19069ft 214kts
04-Mar-14 21:45 34.670833 -115.379069 14 19067ft 214kts
04-Mar-14 21:46 34.727237 -115.354376 15 19058ft 216kts
04-Mar-14 21:47 34.784450 -115.329286 15 19043ft 219kts
04-Mar-14 21:48 34.842205 -115.303905 15 19027ft 221kts
04-Mar-14 21:49 34.900142 -115.278406 15 19023ft 221kts
04-Mar-14 21:50 34.958109 -115.252859 15 19023ft 221kts
04-Mar-14 21:51 35.015827 -115.227386 15 19025ft 221kts
04-Mar-14 21:52 35.073729 -115.201792 15 19025ft 221kts
04-Mar-14 21:53 35.131769 -115.176789 7 19027ft 218kts
04-Mar-14 21:54 35.191871 -115.175660 357 19042ft 215kts
04-Mar-14 21:55 35.252056 -115.174376 357 19038ft 216kts
04-Mar-14 21:56 35.316645 -115.173385 357 18359ft 249kts
04-Mar-14 21:57 35.388451 -115.172064 357 17563ft 262kts
04-Mar-14 21:58 35.460978 -115.170742 358 16757ft 255kts
04-Mar-14 21:59 35.531300 -115.169503 359 15764ft 249kts
04-Mar-14 22:00 35.600911 -115.168298 1 14586ft 249kts
04-Mar-14 22:01 35.669529 -115.164508 10 13393ft 241kts
04-Mar-14 22:02 35.735229 -115.149990 12 12191ft 237kts
04-Mar-14 22:03 35.798848 -115.136278 11 10835ft 225kts
04-Mar-14 22:04 35.859407 -115.122714 13 9331ft 216kts
04-Mar-14 22:05 35.890661 -115.065608 71 7837ft 210kts
04-Mar-14 22:06 35.873359 -115.008903 175 6342ft 210kts
04-Mar-14 22:07 35.836121 -115.054925 241 5431ft 180kts
04-Mar-14 22:08 35.825097 -115.106656 316 5050ft 144kts
04-Mar-14 22:09 35.860243 -115.121439 342 5014ft 136kts
04-Mar-14 22:10 35.897591 -115.134313 347 4776ft 142kts
04-Mar-14 22:11 35.930688 -115.135206 357 3477ft 119kts
04-Mar-14 22:12 35.962631 -115.135561 3 2522ft 102kts
04-Mar-14 22:13 35.973591 -115.135448 322 2497ft 2kts
04-Mar-14 22:14 35.973676 -115.136083 269 2497ft 0kts
04-Mar-14 22:15 35.975479 -115.136511 0 2497ft 9kts
04-Mar-14 22:16 35.976996 -115.137253 229 2497ft 10kts
04-Mar-14 22:17 35.975471 -115.137886 178 2497ft 0kts
04-Mar-14 22:18 35.975471 -115.137886 178 2497ft 0kts
04-Mar-14 22:19 35.975471 -115.137886 178 2497ft 0kts

Navigation Log

Ident Type
Flight plan parsing failed, navigation log unavailable